Pamela B. — WDE9162 — position and weather

sailwx.info

Track history (hours):
 
Tides and Currents Weather Stations Pressure Air Temp Water Temp Dewpoint Dewpoint Depression Visibility Wind Speed Wind Dir Waves Ship Positions

Pamela B.

Owner: F/V Pamela B. Inc., Danvers, MA. More information available from US FCC via Universal Licensing System and Coast Guard Vessel Documentation Center.

Last reported at 2018-Jun-03 16:18 UTC. Time now 2018-Jul-22 20:02 UTC.
Position N 42°31' W 070°48'.
Warning: this ship's position is 49 days out of date.

Length 14 m.

Type: Fishing. MMSI: 367414250.

Date/timePositionNaut miles runAvg speedWind from/ knotsBaromVisibWave heightAir tempDewpointWater temp
2018-Jun-03 16:18N 42°31' W 070°48'2 5.2
2018-Jun-03 15:58N 42°30' W 070°46'0 0.5
2018-Jun-03 15:21N 42°30' W 070°46'0 1.3
2018-Jun-03 14:58N 42°29' W 070°46'1 1.5
2018-Jun-03 14:10N 42°28' W 070°45'0 1.2
2018-Jun-03 13:52N 42°28' W 070°44'0 0.7
2018-Jun-03 13:27N 42°28' W 070°44'1 1.7
2018-Jun-03 12:58N 42°29' W 070°44'1 1.8
2018-Jun-03 12:30N 42°29' W 070°43'0 0.3
2018-Jun-03 12:00N 42°29' W 070°43'0 0.2
2018-Jun-03 11:29N 42°29' W 070°42'0 1.0
2018-Jun-03 11:00N 42°29' W 070°42'0 1.0
2018-Jun-03 10:30N 42°28' W 070°41'  
2018-May-30 14:49N 42°32' W 070°47'0 1.2
2018-May-30 14:30N 42°32' W 070°47'1 1.1
2018-May-30 14:00N 42°32' W 070°46'0 0.6
2018-May-30 13:30N 42°32' W 070°46'1 1.7
2018-May-30 13:00N 42°31' W 070°46'0 0.8
2018-May-30 12:30N 42°31' W 070°46'0 0.6
2018-May-30 12:00N 42°31' W 070°46'1 1.0
2018-May-30 11:30N 42°31' W 070°47'0 0.6
2018-May-30 10:58N 42°31' W 070°47'0 0.6
2018-May-30 10:22N 42°30' W 070°47'0 0.8
2018-May-30 10:00N 42°30' W 070°47'2 0.1
2018-May-29 15:41N 42°32' W 070°48'1 6.4
2018-May-29 15:29N 42°32' W 070°46'1 2.1
2018-May-29 15:00N 42°32' W 070°45'0 0.7
2018-May-29 14:30N 42°32' W 070°45'1 2.0
2018-May-29 13:58N 42°31' W 070°44'1 2.6
2018-May-29 13:28N 42°31' W 070°46'1 1.2
2018-May-29 13:00N 42°31' W 070°45'0 0.3
2018-May-29 12:30N 42°31' W 070°45'1 1.4
2018-May-29 12:00N 42°31' W 070°44'0 0.9
2018-May-29 11:30N 42°30' W 070°45'0 0.6
2018-May-29 11:00N 42°30' W 070°45'0 0.5
2018-May-29 10:29N 42°30' W 070°45'0 0.8
2018-May-29 09:59N 42°30' W 070°45'3 0.2
2018-May-28 16:51N 42°31' W 070°49'3 6.6
2018-May-28 16:27N 42°30' W 070°46'0 0.2
2018-May-28 15:52N 42°30' W 070°46'0 0.4
2018-May-28 15:31N 42°30' W 070°46'1 1.1
2018-May-28 14:55N 42°29' W 070°46'2 3.3
2018-May-28 14:23N 42°28' W 070°44'0 0.7
2018-May-28 14:01N 42°28' W 070°44'0 0.6
2018-May-28 13:30N 42°28' W 070°44'1 1.7
2018-May-28 13:00N 42°29' W 070°43'0 0.7
2018-May-28 12:26N 42°29' W 070°43'1 1.2
2018-May-28 12:00N 42°29' W 070°43'1 0.7
2018-May-28 11:19N 42°29' W 070°42'1 1.5
2018-May-28 10:57N 42°29' W 070°42'0 0.8
2018-May-28 10:26N 42°29' W 070°42'  
Track history (hours):
 
Tides and Currents Weather Stations Pressure Air Temp Water Temp Dewpoint Dewpoint Depression Visibility Wind Speed Wind Dir Waves Ship Positions

Pamela B.

Owner: F/V Pamela B. Inc., Danvers, MA. More information available from US FCC via Universal Licensing System and Coast Guard Vessel Documentation Center.

Last reported at 2018-Jun-03 16:18 UTC. Time now 2018-Jul-22 20:02 UTC.
Position N 42°31' W 070°48'.
Warning: this ship's position is 49 days out of date.

Length 14 m.

Type: Fishing. MMSI: 367414250.

Date/timePositionNaut miles runAvg speedWind from/ knotsBaromVisibWave heightAir tempDewpointWater temp
2018-Jun-03 16:18N 42°31' W 070°48'2 5.2
2018-Jun-03 15:58N 42°30' W 070°46'0 0.5
2018-Jun-03 15:21N 42°30' W 070°46'0 1.3
2018-Jun-03 14:58N 42°29' W 070°46'1 1.5
2018-Jun-03 14:10N 42°28' W 070°45'0 1.2
2018-Jun-03 13:52N 42°28' W 070°44'0 0.7
2018-Jun-03 13:27N 42°28' W 070°44'1 1.7
2018-Jun-03 12:58N 42°29' W 070°44'1 1.8
2018-Jun-03 12:30N 42°29' W 070°43'0 0.3
2018-Jun-03 12:00N 42°29' W 070°43'0 0.2
2018-Jun-03 11:29N 42°29' W 070°42'0 1.0
2018-Jun-03 11:00N 42°29' W 070°42'0 1.0
2018-Jun-03 10:30N 42°28' W 070°41'  
2018-May-30 14:49N 42°32' W 070°47'0 1.2
2018-May-30 14:30N 42°32' W 070°47'1 1.1
2018-May-30 14:00N 42°32' W 070°46'0 0.6
2018-May-30 13:30N 42°32' W 070°46'1 1.7
2018-May-30 13:00N 42°31' W 070°46'0 0.8
2018-May-30 12:30N 42°31' W 070°46'0 0.6
2018-May-30 12:00N 42°31' W 070°46'1 1.0
2018-May-30 11:30N 42°31' W 070°47'0 0.6
2018-May-30 10:58N 42°31' W 070°47'0 0.6
2018-May-30 10:22N 42°30' W 070°47'0 0.8
2018-May-30 10:00N 42°30' W 070°47'2 0.1
2018-May-29 15:41N 42°32' W 070°48'1 6.4
2018-May-29 15:29N 42°32' W 070°46'1 2.1
2018-May-29 15:00N 42°32' W 070°45'0 0.7
2018-May-29 14:30N 42°32' W 070°45'1 2.0
2018-May-29 13:58N 42°31' W 070°44'1 2.6
2018-May-29 13:28N 42°31' W 070°46'1 1.2
2018-May-29 13:00N 42°31' W 070°45'0 0.3
2018-May-29 12:30N 42°31' W 070°45'1 1.4
2018-May-29 12:00N 42°31' W 070°44'0 0.9
2018-May-29 11:30N 42°30' W 070°45'0 0.6
2018-May-29 11:00N 42°30' W 070°45'0 0.5
2018-May-29 10:29N 42°30' W 070°45'0 0.8
2018-May-29 09:59N 42°30' W 070°45'3 0.2
2018-May-28 16:51N 42°31' W 070°49'3 6.6
2018-May-28 16:27N 42°30' W 070°46'0 0.2
2018-May-28 15:52N 42°30' W 070°46'0 0.4
2018-May-28 15:31N 42°30' W 070°46'1 1.1
2018-May-28 14:55N 42°29' W 070°46'2 3.3
2018-May-28 14:23N 42°28' W 070°44'0 0.7
2018-May-28 14:01N 42°28' W 070°44'0 0.6
2018-May-28 13:30N 42°28' W 070°44'1 1.7
2018-May-28 13:00N 42°29' W 070°43'0 0.7
2018-May-28 12:26N 42°29' W 070°43'1 1.2
2018-May-28 12:00N 42°29' W 070°43'1 0.7
2018-May-28 11:19N 42°29' W 070°42'1 1.5
2018-May-28 10:57N 42°29' W 070°42'0 0.8
2018-May-28 10:26N 42°29' W 070°42'  

Dump ship's entire track history